Terminal Aerodrome Forecast
Issued by NWS St Louis, MO

Home | Current Version | Previous Version | Text Only | Print | Product List | Glossary Off
Versions: 1 2 3 4 5 6 7 8 9 10 11 12 13 14 15 16 17 18 19 20 21 22 23 24 25 26 27 28 29 30 31 32

297
FTUS43 KLSX 162340
TAFSTL
TAF
KSTL 162340Z 1700/1806 17009KT 6SM -SHRA VCTS BKN040CB
      TEMPO 1700/1702 3SM SHRA OVC020
     FM170200 18009KT P6SM VCTS BKN040CB
     FM170400 19008KT P6SM SHRA BKN020
     FM170900 17005KT P6SM OVC040
     FM171800 27012KT P6SM SCT045=

USA.gov is the U.S. government's official web portal to all federal, state and local government web resources and services.